Time;durP1;ratioP1;P1;durP2;ratioP2;P2;SDS_P1;SDS_P2;PMS_P1;PMS_P2;Temp;Humidity;BMP_temperature;BMP_pressure;BME280_temperature;BME280_humidity;BME280_pressure;Samples;Min_cycle;Max_cycle;Signal;HPM_P1;HPM_P2
2023/08/19 00:02:25;;;;;;;663.42;612.85;;;;;;;;;;6306575;22;20022;-59
2023/08/19 00:04:51;;;;;;;652.80;603.38;;;;;;;;;;6305926;22;20493;-59
2023/08/19 00:07:18;;;;;;;655.63;605.55;;;;;;;;;;6306689;22;20082;-59
2023/08/19 00:09:44;;;;;;;671.80;617.50;;;;;;;;;;6306542;22;20019;-60
2023/08/19 00:12:12;;;;;;;649.80;599.83;;;;;;;;;;6306682;22;20011;-59
2023/08/19 00:14:38;;;;;;;659.13;609.13;;;;;;;;;;6306359;22;20011;-59
2023/08/19 00:17:05;;;;;;;672.17;621.28;;;;;;;;;;6306386;22;20011;-59
2023/08/19 00:19:31;;;;;;;653.63;604.08;;;;;;;;;;6306563;22;20014;-60
2023/08/19 00:21:58;;;;;;;651.47;601.85;;;;;;;;;;6306016;22;20047;-60
2023/08/19 00:24:25;;;;;;;654.00;603.83;;;;;;;;;;6304558;22;20461;-59
2023/08/19 00:26:51;;;;;;;644.20;595.35;;;;;;;;;;6306713;22;20091;-59
2023/08/19 00:29:18;;;;;;;655.65;605.50;;;;;;;;;;6304648;22;20035;-59
2023/08/19 00:31:45;;;;;;;656.50;605.53;;;;;;;;;;6304274;22;20432;-59
2023/08/19 00:34:12;;;;;;;643.45;594.35;;;;;;;;;;6304047;22;20388;-59
2023/08/19 00:36:39;;;;;;;670.97;615.85;;;;;;;;;;6304614;22;20374;-59
2023/08/19 00:39:06;;;;;;;653.28;604.63;;;;;;;;;;6304798;22;20030;-59
2023/08/19 00:41:33;;;;;;;655.35;605.33;;;;;;;;;;6304163;22;20023;-59
2023/08/19 00:44:00;;;;;;;660.67;611.08;;;;;;;;;;6305834;22;20345;-60
2023/08/19 00:46:26;;;;;;;649.97;599.97;;;;;;;;;;6304512;22;20441;-58
2023/08/19 00:48:53;;;;;;;641.58;592.97;;;;;;;;;;6305948;22;20065;-60
2023/08/19 00:51:20;;;;;;;636.70;588.88;;;;;;;;;;6304617;22;20027;-59
2023/08/19 00:53:47;;;;;;;642.50;593.95;;;;;;;;;;6306423;22;20137;-60
2023/08/19 00:56:13;;;;;;;662.25;612.17;;;;;;;;;;6304329;22;20026;-59
2023/08/19 00:58:41;;;;;;;641.72;592.90;;;;;;;;;;6279001;22;20090;-59
2023/08/19 01:01:08;;;;;;;647.58;598.90;;;;;;;;;;6306266;22;20101;-59
2023/08/19 01:03:34;;;;;;;660.47;606.80;;;;;;;;;;6280948;22;20341;-59
2023/08/19 01:06:07;;;;;;;651.60;603.05;;;;;;;;;;6308487;22;20015;-59
2023/08/19 01:08:38;;;;;;;652.40;602.97;;;;;;;;;;6307908;22;20022;-60
2023/08/19 01:11:37;;;;;;;649.92;601.25;;;;;;;;;;6308219;22;20026;-60
2023/08/19 01:14:08;;;;;;;640.10;592.22;;;;;;;;;;6152573;23;20033;-60
2023/08/19 01:16:35;;;;;;;656.75;604.45;;;;;;;;;;6152837;23;20021;-59
2023/08/19 01:19:04;;;;;;;649.55;600.42;;;;;;;;;;6153280;23;20032;-59
2023/08/19 01:21:31;;;;;;;657.95;605.55;;;;;;;;;;6128293;23;20020;-60
2023/08/19 01:24:04;;;;;;;643.10;595.10;;;;;;;;;;6153586;23;20025;-60
2023/08/19 01:26:30;;;;;;;644.60;596.25;;;;;;;;;;6128561;23;20029;-60
2023/08/19 01:28:57;;;;;;;647.40;598.83;;;;;;;;;;6153205;23;20108;-60
2023/08/19 01:31:24;;;;;;;648.65;599.47;;;;;;;;;;6128394;23;20115;-60
2023/08/19 01:33:50;;;;;;;639.67;590.22;;;;;;;;;;6128115;23;20097;-60
2023/08/19 01:36:26;;;;;;;654.67;604.60;;;;;;;;;;6153454;23;20029;-59
2023/08/19 01:38:59;;;;;;;634.78;586.63;;;;;;;;;;6128752;23;20025;-60
2023/08/19 01:41:28;;;;;;;643.30;594.38;;;;;;;;;;6152976;23;20096;-59
2023/08/19 01:43:58;;;;;;;641.03;592.88;;;;;;;;;;6153008;23;20074;-60
2023/08/19 01:49:45;;;;;;;1563.90;814.40;;;;;;;;;;5960475;23;20120;-85
2023/08/19 01:52:13;;;;;;;1580.80;812.00;;;;;;;;;;6001788;23;21114;-85
2023/08/19 01:54:40;;;;;;;1519.32;811.40;;;;;;;;;;5991620;23;20288;-85
2023/08/19 01:57:07;;;;;;;1334.72;771.03;;;;;;;;;;5994998;23;20944;-85
2023/08/19 01:59:34;;;;;;;1285.78;772.53;;;;;;;;;;6001909;23;20022;-85
2023/08/19 02:02:00;;;;;;;1759.88;852.58;;;;;;;;;;6008320;22;20023;-82
2023/08/19 02:04:27;;;;;;;1999.90;994.53;;;;;;;;;;6085081;22;20023;-82
2023/08/19 02:06:54;;;;;;;1999.90;971.90;;;;;;;;;;6073581;22;20042;-82
2023/08/19 02:09:20;;;;;;;1408.82;787.90;;;;;;;;;;6099615;22;20634;-82
2023/08/19 02:11:49;;;;;;;1999.90;913.45;;;;;;;;;;6069896;22;20018;-82
2023/08/19 02:14:15;;;;;;;1560.95;817.70;;;;;;;;;;6080339;22;20045;-83
2023/08/19 02:16:43;;;;;;;1999.90;999.90;;;;;;;;;;6060331;22;20027;-83
2023/08/19 02:19:09;;;;;;;1999.90;999.90;;;;;;;;;;6080319;22;20064;-83
2023/08/19 02:21:36;;;;;;;1999.90;996.40;;;;;;;;;;6129862;22;20463;-83
2023/08/19 02:24:03;;;;;;;1519.43;811.30;;;;;;;;;;6122507;22;20026;-83
2023/08/19 02:26:29;;;;;;;1792.95;854.55;;;;;;;;;;6094723;22;21186;-83
2023/08/19 02:28:56;;;;;;;1997.15;890.78;;;;;;;;;;6085567;22;20015;-83
2023/08/19 02:31:23;;;;;;;1581.78;814.92;;;;;;;;;;6089759;22;20079;-82
2023/08/19 02:33:49;;;;;;;1999.90;999.90;;;;;;;;;;6056063;22;20215;-83
2023/08/19 02:36:16;;;;;;;1647.18;830.70;;;;;;;;;;6134468;22;21053;-83
2023/08/19 02:38:43;;;;;;;1856.18;862.55;;;;;;;;;;6100856;22;20022;-82
2023/08/19 02:41:09;;;;;;;1805.18;856.22;;;;;;;;;;6086310;22;20586;-83
2023/08/19 02:43:37;;;;;;;1791.60;848.67;;;;;;;;;;6061597;22;20133;-83
2023/08/19 02:46:04;;;;;;;1999.90;922.97;;;;;;;;;;6059935;22;20022;-83
2023/08/19 02:48:31;;;;;;;1999.90;963.65;;;;;;;;;;6127941;22;20014;-83
2023/08/19 02:50:58;;;;;;;1999.90;915.22;;;;;;;;;;6084863;22;20398;-83
2023/08/19 02:53:24;;;;;;;1839.05;849.60;;;;;;;;;;6057686;22;21123;-82
2023/08/19 02:55:52;;;;;;;1999.90;999.90;;;;;;;;;;6061591;22;20046;-83
2023/08/19 02:58:19;;;;;;;1999.90;925.60;;;;;;;;;;6114404;22;20038;-83
2023/08/19 03:00:46;;;;;;;1999.90;999.90;;;;;;;;;;6098502;22;20091;-84
2023/08/19 03:03:13;;;;;;;1999.90;997.00;;;;;;;;;;6093993;22;20086;-83
2023/08/19 03:05:40;;;;;;;1591.28;877.17;;;;;;;;;;6056508;22;20023;-83
2023/08/19 03:08:08;;;;;;;1912.25;939.53;;;;;;;;;;6061440;22;20046;-83
2023/08/19 03:10:35;;;;;;;1999.90;999.70;;;;;;;;;;6061931;22;20764;-83
2023/08/19 03:13:05;;;;;;;1999.90;999.90;;;;;;;;;;6058740;22;21144;-83
2023/08/19 03:15:33;;;;;;;1654.75;892.10;;;;;;;;;;6071368;22;20019;-83
2023/08/19 03:18:00;;;;;;;1589.10;876.72;;;;;;;;;;6092435;22;20719;-82
2023/08/19 03:20:27;;;;;;;1999.90;984.70;;;;;;;;;;6018051;22;20020;-83
2023/08/19 03:22:54;;;;;;;1785.90;905.47;;;;;;;;;;6074797;22;20019;-83
2023/08/19 03:25:20;;;;;;;1999.90;987.42;;;;;;;;;;6033508;22;20019;-82
2023/08/19 03:27:47;;;;;;;1999.90;999.90;;;;;;;;;;6050587;22;20019;-83
2023/08/19 03:30:14;;;;;;;1969.40;935.53;;;;;;;;;;6097986;22;20011;-82
2023/08/19 03:32:41;;;;;;;1978.65;945.85;;;;;;;;;;6056430;22;20019;-87
2023/08/19 03:35:08;;;;;;;1999.90;999.90;;;;;;;;;;6025631;22;20015;-86
2023/08/19 03:37:34;;;;;;;1652.53;865.03;;;;;;;;;;6025713;22;20181;-86
2023/08/19 03:40:02;;;;;;;1999.90;979.20;;;;;;;;;;6017072;22;20022;-86
2023/08/19 03:42:29;;;;;;;1999.90;999.90;;;;;;;;;;6037392;22;20023;-87
2023/08/19 03:44:58;;;;;;;1998.97;941.42;;;;;;;;;;6021326;22;20023;-87
2023/08/19 03:47:25;;;;;;;1874.40;910.72;;;;;;;;;;6059154;22;20019;-86
2023/08/19 03:49:52;;;;;;;1999.90;999.90;;;;;;;;;;6031611;22;20481;-86
2023/08/19 03:52:23;;;;;;;1999.90;997.42;;;;;;;;;;6043764;22;20926;-87
2023/08/19 03:54:51;;;;;;;1999.90;999.90;;;;;;;;;;6023234;22;21275;-85
2023/08/19 03:57:17;;;;;;;1999.90;999.90;;;;;;;;;;6074285;22;20852;-85
2023/08/19 03:59:48;;;;;;;1999.90;947.88;;;;;;;;;;6052143;22;20019;-85
2023/08/19 04:02:14;;;;;;;1754.85;875.72;;;;;;;;;;6054492;22;21068;-85
2023/08/19 04:05:00;;;;;;;1999.90;997.00;;;;;;;;;;6042260;22;20047;-85
2023/08/19 04:07:27;;;;;;;1976.07;920.50;;;;;;;;;;6063528;22;20116;-85
2023/08/19 04:09:55;;;;;;;1999.90;999.90;;;;;;;;;;6056459;22;20023;-85
2023/08/19 04:12:22;;;;;;;1909.32;910.92;;;;;;;;;;6081490;22;20857;-85
2023/08/19 04:14:48;;;;;;;1854.20;903.20;;;;;;;;;;6024257;22;20544;-85
2023/08/19 04:17:16;;;;;;;1999.90;999.90;;;;;;;;;;6005513;22;20019;-85
2023/08/19 04:19:43;;;;;;;1999.90;999.90;;;;;;;;;;6020856;22;20019;-85
2023/08/19 04:22:11;;;;;;;1999.90;963.83;;;;;;;;;;6025089;22;20023;-85
2023/08/19 04:24:37;;;;;;;1999.90;999.90;;;;;;;;;;6045644;22;20773;-85
2023/08/19 04:27:04;;;;;;;1999.90;949.35;;;;;;;;;;6079356;22;20034;-84
2023/08/19 04:29:34;;;;;;;1592.18;859.40;;;;;;;;;;6018785;22;20100;-83
2023/08/19 04:32:02;;;;;;;1630.68;872.15;;;;;;;;;;6006467;22;20768;-84
2023/08/19 04:34:30;;;;;;;1999.90;999.90;;;;;;;;;;6004859;22;20011;-84
2023/08/19 04:36:59;;;;;;;1999.90;999.90;;;;;;;;;;6027210;22;20071;-84
2023/08/19 04:39:27;;;;;;;1718.50;882.22;;;;;;;;;;6067722;22;20818;-84
2023/08/19 04:41:59;;;;;;;1999.90;999.90;;;;;;;;;;6023904;22;20755;-85
2023/08/19 04:44:26;;;;;;;1987.20;958.03;;;;;;;;;;6014587;22;20015;-86
2023/08/19 04:46:53;;;;;;;1999.90;999.90;;;;;;;;;;6019059;22;20023;-84
2023/08/19 04:49:20;;;;;;;1999.90;997.28;;;;;;;;;;6013582;22;20019;-84
2023/08/19 04:51:47;;;;;;;1999.90;999.90;;;;;;;;;;6013330;22;20084;-85
2023/08/19 04:54:14;;;;;;;1578.35;854.00;;;;;;;;;;6057380;22;20863;-84
2023/08/19 04:56:41;;;;;;;1946.05;920.72;;;;;;;;;;6034102;22;20027;-84
2023/08/19 04:59:07;;;;;;;1999.90;999.90;;;;;;;;;;6011670;22;20030;-85
2023/08/19 05:01:34;;;;;;;1610.18;854.60;;;;;;;;;;6081539;22;20156;-84
2023/08/19 05:04:01;;;;;;;1999.90;999.90;;;;;;;;;;6070525;22;21317;-85
2023/08/19 05:06:29;;;;;;;1999.90;999.90;;;;;;;;;;6053848;22;20011;-84
2023/08/19 05:08:57;;;;;;;1738.68;885.40;;;;;;;;;;6060812;22;20026;-83
2023/08/19 05:11:24;;;;;;;1817.47;899.17;;;;;;;;;;6050886;22;20019;-83
2023/08/19 05:13:53;;;;;;;1999.90;999.90;;;;;;;;;;6040575;22;20622;-85
2023/08/19 05:16:20;;;;;;;1999.90;999.90;;;;;;;;;;6071380;22;20019;-84
2023/08/19 05:18:50;;;;;;;1999.90;999.90;;;;;;;;;;6053356;22;20046;-85
2023/08/19 05:21:16;;;;;;;1999.90;999.90;;;;;;;;;;6094817;22;21052;-82
2023/08/19 05:23:43;;;;;;;1999.90;968.75;;;;;;;;;;6071019;22;20018;-85
2023/08/19 05:26:13;;;;;;;1835.97;909.35;;;;;;;;;;6057206;22;20084;-85
2023/08/19 05:28:40;;;;;;;1999.90;999.90;;;;;;;;;;6041629;22;20982;-84
2023/08/19 05:31:06;;;;;;;1999.90;999.90;;;;;;;;;;6064448;22;20284;-84
2023/08/19 05:33:33;;;;;;;1859.47;908.45;;;;;;;;;;6027435;22;20029;-84
2023/08/19 05:35:59;;;;;;;1999.90;986.92;;;;;;;;;;6039142;22;20307;-83
2023/08/19 05:38:26;;;;;;;1999.90;999.90;;;;;;;;;;6006710;22;20018;-84
2023/08/19 05:40:53;;;;;;;1999.90;976.88;;;;;;;;;;6044653;22;20108;-84
2023/08/19 05:43:19;;;;;;;1999.90;999.90;;;;;;;;;;5995685;22;20022;-84
2023/08/19 05:45:46;;;;;;;1999.90;999.90;;;;;;;;;;6033152;22;20019;-83
2023/08/19 05:48:12;;;;;;;1663.25;871.03;;;;;;;;;;6113407;22;20943;-83
2023/08/19 05:50:39;;;;;;;1999.90;977.63;;;;;;;;;;6040283;22;20622;-83
2023/08/19 05:53:06;;;;;;;1999.90;999.90;;;;;;;;;;6010996;22;21240;-84
2023/08/19 05:55:33;;;;;;;1796.15;892.55;;;;;;;;;;6045530;22;20045;-84
2023/08/19 05:58:00;;;;;;;1999.90;999.90;;;;;;;;;;6049178;22;21123;-84
2023/08/19 06:00:27;;;;;;;1952.38;942.13;;;;;;;;;;6100637;22;20049;-85
2023/08/19 06:02:54;;;;;;;1800.22;907.97;;;;;;;;;;6108423;22;20933;-85
2023/08/19 06:05:21;;;;;;;1746.47;909.85;;;;;;;;;;6080267;22;20179;-86
2023/08/19 06:07:47;;;;;;;1999.90;999.90;;;;;;;;;;6096570;22;20068;-83
2023/08/19 06:10:14;;;;;;;1999.90;999.90;;;;;;;;;;6104011;22;20026;-84
2023/08/19 06:12:40;;;;;;;1999.90;999.90;;;;;;;;;;6103918;22;20019;-85
2023/08/19 06:15:07;;;;;;;1999.90;999.90;;;;;;;;;;6093085;22;20122;-83
2023/08/19 06:17:34;;;;;;;1839.35;997.72;;;;;;;;;;6090695;22;20088;-84
2023/08/19 06:20:01;;;;;;;1999.90;999.90;;;;;;;;;;6085927;22;20958;-84
2023/08/19 06:22:28;;;;;;;1999.90;999.90;;;;;;;;;;6091446;22;20868;-84
2023/08/19 06:24:55;;;;;;;1999.90;999.90;;;;;;;;;;6049823;22;20646;-83
2023/08/19 06:27:21;;;;;;;1851.40;999.90;;;;;;;;;;6114283;22;21023;-83
2023/08/19 06:29:48;;;;;;;1999.90;999.90;;;;;;;;;;6032283;22;20069;-84
2023/08/19 06:32:15;;;;;;;1999.90;999.90;;;;;;;;;;6085274;22;20011;-83
2023/08/19 06:34:41;;;;;;;1999.90;999.90;;;;;;;;;;6087953;22;20264;-82
2023/08/19 06:37:10;;;;;;;1999.90;999.90;;;;;;;;;;6074416;22;20588;-83
2023/08/19 06:39:39;;;;;;;1999.90;999.90;;;;;;;;;;6121163;22;21200;-86
2023/08/19 06:42:07;;;;;;;1800.53;999.90;;;;;;;;;;6118643;22;20919;-85
2023/08/19 06:44:36;;;;;;;1999.90;999.90;;;;;;;;;;6054704;22;20086;-85
2023/08/19 06:47:02;;;;;;;1999.90;999.90;;;;;;;;;;6102970;22;20015;-85
2023/08/19 06:49:30;;;;;;;1867.13;999.90;;;;;;;;;;6089672;22;20026;-85
2023/08/19 06:51:56;;;;;;;1999.90;999.90;;;;;;;;;;6102215;22;20028;-84
2023/08/19 06:54:23;;;;;;;1969.95;999.90;;;;;;;;;;6112156;22;21012;-84
2023/08/19 06:57:09;;;;;;;1999.90;999.90;;;;;;;;;;6078346;22;20254;-85
2023/08/19 06:59:39;;;;;;;1999.90;999.90;;;;;;;;;;6062975;22;21101;-84
2023/08/19 07:02:06;;;;;;;1928.68;999.90;;;;;;;;;;6038244;22;20027;-83
2023/08/19 07:04:35;;;;;;;1999.90;999.90;;;;;;;;;;6096857;22;20129;-85
2023/08/19 07:07:03;;;;;;;1999.90;999.90;;;;;;;;;;6086679;22;20839;-85
2023/08/19 07:09:31;;;;;;;1773.65;999.90;;;;;;;;;;6113628;22;20018;-84
2023/08/19 07:11:58;;;;;;;1999.90;999.90;;;;;;;;;;6102861;22;20121;-85
2023/08/19 07:14:25;;;;;;;1999.90;999.90;;;;;;;;;;6081851;22;20014;-87
2023/08/19 07:16:52;;;;;;;1999.90;999.90;;;;;;;;;;6026043;22;21044;-86
2023/08/19 07:19:24;;;;;;;1999.90;999.90;;;;;;;;;;6069449;22;20022;-85
2023/08/19 07:21:51;;;;;;;1999.90;999.90;;;;;;;;;;6079831;22;20019;-85
2023/08/19 07:24:19;;;;;;;1998.28;999.90;;;;;;;;;;6101548;22;20017;-85
2023/08/19 07:26:46;;;;;;;1874.70;999.90;;;;;;;;;;6086840;22;20019;-85
2023/08/19 07:29:13;;;;;;;1999.90;999.90;;;;;;;;;;6073056;22;20838;-83
2023/08/19 07:31:40;;;;;;;1999.90;999.90;;;;;;;;;;6068226;22;20171;-85
2023/08/19 07:34:07;;;;;;;1999.90;999.90;;;;;;;;;;6080670;22;20046;-85
2023/08/19 07:36:34;;;;;;;1999.90;999.90;;;;;;;;;;6110190;22;20014;-86
2023/08/19 07:39:01;;;;;;;1876.57;999.90;;;;;;;;;;6068336;22;20026;-86
2023/08/19 07:41:28;;;;;;;1999.90;999.90;;;;;;;;;;6030837;22;20784;-86
2023/08/19 07:43:54;;;;;;;1999.90;999.90;;;;;;;;;;6078707;22;20015;-85
2023/08/19 07:46:21;;;;;;;1999.90;999.90;;;;;;;;;;6050150;22;20544;-84
2023/08/19 07:48:48;;;;;;;1999.90;999.90;;;;;;;;;;6100154;22;20030;-85
2023/08/19 07:51:15;;;;;;;1999.90;999.90;;;;;;;;;;6106662;22;20950;-85
2023/08/19 07:53:42;;;;;;;1999.90;999.90;;;;;;;;;;6097297;22;20030;-85
2023/08/19 07:56:09;;;;;;;1979.68;999.90;;;;;;;;;;6047893;22;20893;-84
2023/08/19 07:58:36;;;;;;;1999.90;999.90;;;;;;;;;;6116149;22;20033;-85
2023/08/19 08:01:03;;;;;;;1999.90;999.90;;;;;;;;;;6112433;22;20088;-85
2023/08/19 08:03:32;;;;;;;1999.90;999.90;;;;;;;;;;6102099;22;20015;-85
2023/08/19 08:05:59;;;;;;;1999.90;999.90;;;;;;;;;;6100850;22;20019;-83
2023/08/19 08:08:26;;;;;;;1999.90;999.90;;;;;;;;;;6101234;22;20032;-84
2023/08/19 08:10:53;;;;;;;1999.90;999.90;;;;;;;;;;6122114;22;20081;-84
2023/08/19 08:13:20;;;;;;;1999.90;999.90;;;;;;;;;;6120960;22;20908;-85
2023/08/19 08:15:47;;;;;;;1999.90;999.90;;;;;;;;;;6140495;22;20064;-85
2023/08/19 08:18:14;;;;;;;1677.03;999.90;;;;;;;;;;6156565;22;20022;-85
2023/08/19 08:20:41;;;;;;;1970.03;999.90;;;;;;;;;;6132087;22;20451;-83
2023/08/19 08:23:08;;;;;;;1947.38;999.90;;;;;;;;;;6144234;22;20856;-84
2023/08/19 08:25:34;;;;;;;1648.05;999.90;;;;;;;;;;6158406;22;20011;-84
2023/08/19 08:28:01;;;;;;;1999.90;999.90;;;;;;;;;;6098017;22;20802;-84
2023/08/19 08:30:28;;;;;;;1999.90;999.90;;;;;;;;;;6150361;22;20027;-84
2023/08/19 08:32:54;;;;;;;1999.90;999.90;;;;;;;;;;6148492;22;20025;-84
2023/08/19 08:35:21;;;;;;;1727.57;999.90;;;;;;;;;;6145069;22;20022;-83
2023/08/19 08:37:48;;;;;;;1999.90;999.90;;;;;;;;;;6138793;22;20030;-84
2023/08/19 08:40:15;;;;;;;1997.55;999.90;;;;;;;;;;6146911;22;20024;-84
2023/08/19 08:42:42;;;;;;;1999.90;999.90;;;;;;;;;;6151442;22;20144;-83
2023/08/19 08:45:13;;;;;;;1999.90;999.90;;;;;;;;;;6153565;22;20844;-84
2023/08/19 08:47:41;;;;;;;1814.88;999.90;;;;;;;;;;6134545;22;21077;-85
2023/08/19 08:50:08;;;;;;;1631.10;999.90;;;;;;;;;;6171354;22;20015;-84
2023/08/19 08:52:34;;;;;;;1755.90;999.90;;;;;;;;;;6189709;22;20925;-84
2023/08/19 08:55:02;;;;;;;1765.95;999.90;;;;;;;;;;6184164;22;21201;-84
2023/08/19 08:57:28;;;;;;;1645.47;999.90;;;;;;;;;;6192879;22;20026;-84
2023/08/19 08:59:55;;;;;;;1858.18;999.90;;;;;;;;;;6190312;22;20019;-86
2023/08/19 09:02:24;;;;;;;1702.43;999.90;;;;;;;;;;6160474;22;21151;-86
2023/08/19 09:04:51;;;;;;;1677.32;999.90;;;;;;;;;;6186582;22;20155;-85
2023/08/19 09:07:30;;;;;;;1770.00;999.90;;;;;;;;;;6181473;22;20014;-85
2023/08/19 09:09:58;;;;;;;1919.95;999.90;;;;;;;;;;6172451;22;20533;-84
2023/08/19 09:12:25;;;;;;;1781.30;999.90;;;;;;;;;;6187696;22;20011;-85
2023/08/19 09:15:01;;;;;;;1732.32;999.90;;;;;;;;;;6161786;22;20860;-86
2023/08/19 09:17:29;;;;;;;1681.25;999.90;;;;;;;;;;6188523;22;20019;-88
2023/08/19 09:19:56;;;;;;;1746.30;999.90;;;;;;;;;;6184871;22;20029;-86
2023/08/19 09:22:23;;;;;;;1736.45;999.90;;;;;;;;;;6179580;22;20029;-87
2023/08/19 09:24:53;;;;;;;1773.47;999.90;;;;;;;;;;6184510;22;20876;-87
2023/08/19 09:27:29;;;;;;;1737.07;999.90;;;;;;;;;;6188457;22;20148;-85
2023/08/19 09:29:57;;;;;;;1697.65;999.90;;;;;;;;;;6187331;22;20103;-85
2023/08/19 09:32:30;;;;;;;1736.78;999.90;;;;;;;;;;6187476;22;20884;-86
2023/08/19 09:35:02;;;;;;;1782.45;999.90;;;;;;;;;;6191206;22;20014;-85
2023/08/19 09:37:32;;;;;;;1660.47;999.90;;;;;;;;;;6189840;22;20837;-85
2023/08/19 09:39:59;;;;;;;1831.50;999.90;;;;;;;;;;6189860;22;20104;-86
2023/08/19 09:42:26;;;;;;;1773.15;999.90;;;;;;;;;;6194249;22;20014;-86
2023/08/19 09:44:53;;;;;;;1494.65;999.90;;;;;;;;;;6188035;22;20822;-88
2023/08/19 09:47:19;;;;;;;1720.38;999.90;;;;;;;;;;6215747;22;20192;-88
2023/08/19 09:49:50;;;;;;;1856.30;999.90;;;;;;;;;;6139022;22;20029;-87
2023/08/19 09:52:19;;;;;;;1990.70;999.90;;;;;;;;;;6160463;22;20129;-88
2023/08/19 09:54:50;;;;;;;1999.90;999.90;;;;;;;;;;6153755;22;20052;-88
2023/08/19 09:57:18;;;;;;;1993.70;999.90;;;;;;;;;;6147912;22;20823;-89
2023/08/19 09:59:44;;;;;;;1897.95;999.90;;;;;;;;;;6166744;22;20019;-86
2023/08/19 10:02:12;;;;;;;1936.45;999.90;;;;;;;;;;6112974;22;20939;-87
2023/08/19 10:04:39;;;;;;;1999.90;999.90;;;;;;;;;;6169419;22;21169;-87
2023/08/19 10:07:06;;;;;;;1999.90;999.90;;;;;;;;;;6139561;22;20117;-86
2023/08/19 10:09:34;;;;;;;1729.35;999.90;;;;;;;;;;6161678;22;20846;-86
2023/08/19 10:12:02;;;;;;;1770.13;999.90;;;;;;;;;;6129746;22;20019;-86
2023/08/19 10:14:30;;;;;;;1486.53;999.90;;;;;;;;;;6143285;22;20044;-90
2023/08/19 10:16:59;;;;;;;1736.43;999.90;;;;;;;;;;6195816;22;20368;-88
2023/08/19 10:19:27;;;;;;;1724.00;999.90;;;;;;;;;;6194830;22;20030;-87
2023/08/19 10:21:54;;;;;;;1855.18;999.90;;;;;;;;;;6193676;22;20015;-87
2023/08/19 10:24:22;;;;;;;1712.65;999.90;;;;;;;;;;6189160;22;20216;-85
2023/08/19 10:26:48;;;;;;;1721.07;999.90;;;;;;;;;;6188082;22;20026;-86
2023/08/19 10:29:15;;;;;;;1744.85;999.90;;;;;;;;;;6200613;22;20015;-85
2023/08/19 10:31:42;;;;;;;1603.40;999.90;;;;;;;;;;6202158;22;20624;-89
2023/08/19 10:34:11;;;;;;;1699.13;999.90;;;;;;;;;;6197087;22;20230;-87
2023/08/19 10:36:39;;;;;;;1752.97;999.90;;;;;;;;;;6186155;22;20604;-87
2023/08/19 10:39:14;;;;;;;1745.75;999.90;;;;;;;;;;6186694;22;20022;-88
2023/08/19 10:41:40;;;;;;;1742.80;999.90;;;;;;;;;;6191961;22;20898;-88
2023/08/19 10:44:08;;;;;;;1703.05;999.90;;;;;;;;;;6191732;22;20014;-87
2023/08/19 10:46:36;;;;;;;1754.85;999.90;;;;;;;;;;6186739;22;20019;-88
2023/08/19 10:49:03;;;;;;;1784.10;999.90;;;;;;;;;;6158684;22;20803;-88
2023/08/19 10:51:57;;;;;;;1704.70;999.90;;;;;;;;;;6192287;22;20030;-87
2023/08/19 10:54:26;;;;;;;1709.95;999.90;;;;;;;;;;6186590;22;20121;-87
2023/08/19 10:57:11;;;;;;;1691.55;999.90;;;;;;;;;;6192745;22;20038;-88
2023/08/19 10:59:39;;;;;;;1675.10;999.90;;;;;;;;;;6191081;22;20019;-87
2023/08/19 11:02:06;;;;;;;1704.95;999.90;;;;;;;;;;6185957;22;21110;-88
2023/08/19 11:04:33;;;;;;;1788.43;999.90;;;;;;;;;;6186079;22;20022;-88
2023/08/19 11:07:00;;;;;;;1746.93;999.90;;;;;;;;;;6184948;22;20022;-87
2023/08/19 11:09:28;;;;;;;1688.43;999.90;;;;;;;;;;6188110;22;20019;-87
2023/08/19 11:11:55;;;;;;;1721.07;999.90;;;;;;;;;;6190706;22;20859;-87
2023/08/19 11:14:23;;;;;;;1738.80;999.90;;;;;;;;;;6155902;22;20843;-87
2023/08/19 11:16:50;;;;;;;1717.15;999.90;;;;;;;;;;6190876;22;20021;-87
2023/08/19 11:19:17;;;;;;;1778.65;999.90;;;;;;;;;;6184452;22;20014;-87
2023/08/19 11:21:44;;;;;;;1763.88;999.90;;;;;;;;;;6182992;22;20895;-87
2023/08/19 11:24:11;;;;;;;1700.22;999.90;;;;;;;;;;6186776;22;20970;-87
2023/08/19 11:26:39;;;;;;;1757.63;999.90;;;;;;;;;;6186559;22;20968;-87
2023/08/19 11:29:06;;;;;;;1810.97;999.90;;;;;;;;;;6187960;22;20025;-87
2023/08/19 11:31:34;;;;;;;1509.57;999.90;;;;;;;;;;6168255;22;20042;-88
2023/08/19 11:34:10;;;;;;;1698.97;999.90;;;;;;;;;;6197298;22;20019;-88
2023/08/19 11:36:38;;;;;;;1256.35;982.80;;;;;;;;;;6197324;22;21412;-89
2023/08/19 11:39:05;;;;;;;1651.13;999.90;;;;;;;;;;6202531;22;20018;-85
2023/08/19 11:41:34;;;;;;;1734.55;999.90;;;;;;;;;;6214318;22;20747;-88
2023/08/19 11:44:01;;;;;;;1660.50;999.90;;;;;;;;;;6183094;22;20019;-88
2023/08/19 11:46:29;;;;;;;1692.65;999.90;;;;;;;;;;6187240;22;20019;-88
2023/08/19 11:48:57;;;;;;;1867.55;999.90;;;;;;;;;;6179837;22;20957;-88
2023/08/19 11:51:27;;;;;;;1819.50;999.90;;;;;;;;;;6157953;22;20133;-88
2023/08/19 11:53:54;;;;;;;1999.90;999.90;;;;;;;;;;6178224;22;20018;-86
2023/08/19 11:56:21;;;;;;;1707.70;999.90;;;;;;;;;;6171011;22;21197;-87
2023/08/19 11:58:51;;;;;;;1648.43;999.90;;;;;;;;;;6170046;22;20333;-87
2023/08/19 12:01:18;;;;;;;1774.00;999.90;;;;;;;;;;6121291;22;20804;-87
2023/08/19 12:03:46;;;;;;;1999.90;999.90;;;;;;;;;;6126687;22;20015;-87
2023/08/19 12:06:13;;;;;;;1999.90;999.90;;;;;;;;;;6145231;22;20877;-86
2023/08/19 12:08:41;;;;;;;1817.82;999.90;;;;;;;;;;6098882;22;20362;-88
2023/08/19 12:11:08;;;;;;;1999.90;999.90;;;;;;;;;;6100963;22;20992;-88
2023/08/19 12:13:34;;;;;;;1963.43;999.90;;;;;;;;;;6155318;22;20072;-87
2023/08/19 12:16:01;;;;;;;1969.30;999.90;;;;;;;;;;6149391;22;20015;-88
2023/08/19 12:18:35;;;;;;;1806.88;999.90;;;;;;;;;;6168342;22;20019;-88
2023/08/19 12:21:03;;;;;;;1979.60;999.90;;;;;;;;;;6139931;22;20820;-87
2023/08/19 12:23:30;;;;;;;1504.00;999.90;;;;;;;;;;6169912;22;20505;-88
2023/08/19 12:25:57;;;;;;;1999.90;999.90;;;;;;;;;;6182467;22;20021;-88
2023/08/19 12:28:24;;;;;;;1964.50;999.90;;;;;;;;;;6163769;22;21108;-88
2023/08/19 12:30:52;;;;;;;1789.47;999.90;;;;;;;;;;6170865;22;20042;-88
2023/08/19 12:33:19;;;;;;;1841.88;999.90;;;;;;;;;;6182247;22;20569;-84
2023/08/19 12:35:46;;;;;;;1804.13;999.90;;;;;;;;;;6145512;22;20807;-88
2023/08/19 12:38:14;;;;;;;1712.28;999.90;;;;;;;;;;6179810;22;21093;-87
2023/08/19 12:40:41;;;;;;;1696.88;999.90;;;;;;;;;;6166472;22;21099;-87
2023/08/19 12:43:08;;;;;;;1813.28;999.90;;;;;;;;;;6175533;22;20100;-87
2023/08/19 12:45:35;;;;;;;1689.28;999.90;;;;;;;;;;6180399;22;20011;-88
2023/08/19 12:48:01;;;;;;;1716.18;999.90;;;;;;;;;;6178795;22;20015;-88
2023/08/19 12:50:28;;;;;;;1933.63;999.90;;;;;;;;;;6172093;22;20014;-87
2023/08/19 12:52:54;;;;;;;1799.97;999.90;;;;;;;;;;6172015;22;20882;-87
2023/08/19 12:55:25;;;;;;;1691.32;999.90;;;;;;;;;;6177334;22;20084;-88
2023/08/19 12:57:54;;;;;;;1825.70;999.90;;;;;;;;;;6180475;22;20023;-87
2023/08/19 13:00:24;;;;;;;1698.10;999.90;;;;;;;;;;6178556;22;20023;-88
2023/08/19 13:02:51;;;;;;;1707.82;999.90;;;;;;;;;;6127206;22;20038;-87
2023/08/19 13:05:18;;;;;;;1731.18;999.90;;;;;;;;;;6149825;22;20184;-88
2023/08/19 13:07:45;;;;;;;1737.85;999.90;;;;;;;;;;6126623;22;20027;-88
2023/08/19 13:10:11;;;;;;;1499.82;998.50;;;;;;;;;;6153585;22;20019;-87
2023/08/19 13:12:41;;;;;;;1818.82;999.90;;;;;;;;;;6156860;22;20855;-89
2023/08/19 13:15:08;;;;;;;1794.03;999.90;;;;;;;;;;6151366;22;20118;-89
2023/08/19 13:17:38;;;;;;;1731.95;999.90;;;;;;;;;;6138962;22;20030;-88
2023/08/19 13:20:08;;;;;;;1818.70;999.90;;;;;;;;;;6131741;22;20034;-89
2023/08/19 13:22:35;;;;;;;1958.68;999.90;;;;;;;;;;6143872;22;20026;-89
2023/08/19 13:25:06;;;;;;;1890.15;999.90;;;;;;;;;;6133477;22;20840;-90
2023/08/19 13:27:33;;;;;;;1795.82;999.90;;;;;;;;;;6146469;22;20021;-89
2023/08/19 13:29:59;;;;;;;1771.50;999.90;;;;;;;;;;6149069;22;20019;-88
2023/08/19 13:32:26;;;;;;;1706.95;999.90;;;;;;;;;;6156466;22;20502;-88
2023/08/19 13:34:53;;;;;;;1740.85;999.90;;;;;;;;;;6151327;22;20184;-89
2023/08/19 13:37:19;;;;;;;1743.07;999.90;;;;;;;;;;6154914;22;20778;-88
2023/08/19 13:39:46;;;;;;;1841.05;999.90;;;;;;;;;;6155367;22;21070;-89
2023/08/19 13:42:13;;;;;;;1885.75;999.90;;;;;;;;;;6153071;22;20046;-90
2023/08/19 13:44:40;;;;;;;1811.75;999.90;;;;;;;;;;6149685;22;20085;-89
2023/08/19 13:47:07;;;;;;;1699.13;999.90;;;;;;;;;;6156119;22;20023;-88
2023/08/19 13:49:33;;;;;;;1711.70;999.90;;;;;;;;;;6145461;22;20913;-88